Airfield :
LOGIN :

Register | Disclaimer

   EN    FR    IT 

 










Legend :    VFR   Marginal VFR   IFR   Intensive IFR   Very Intensive IFR
Visi :
Ceiling :
>= 8 km
>= 3000ft
5 to 8 km
1000 to 3000 ft
1500m to 5 km
500 to 1000 ft
800 to 1500m
200 to 500 ft
< 800m
< 200 ft
Symbols :   Thunderstorms  Fog  Heavy snow  Heavy precipitations  Wind > 20 kt
SIGMETs :     Misc.  Thunderstorms  Icing  Turbulence  Mountain Waves  Volcanic Ashes







- Airport Elevation : 209 ft
- IATA code : CLY
- Download approach charts


LFKC - Calvi

CURRENT METAR :
  • 210430Z AUTO VRB02KT CAVOK 13/07 Q1015 NOSIG

EXPIRED METARs :
  • 210400Z AUTO 17005KT 140V210 CAVOK 13/07 Q1015 NOSIG
  • 210330Z AUTO 22004KT CAVOK 13/07 Q1015 NOSIG
  • 210300Z AUTO 17006KT CAVOK 14/08 Q1016 NOSIG
  • 210230Z AUTO 17006KT CAVOK 13/08 Q1016
  • 210200Z AUTO 17005KT CAVOK 14/08 Q1017

TAF TAF LFKC
Valid from the 21 at 03:00 until the 22 at 03:00 UTC


210200Z 2103/2203 VRB04KT 9999 FEW050 BKN130 TX25/2112Z TN13/2103Z
BECMG 2108/2110 02010KT
BECMG 2118/2120 18006KT
ATIS : +33 4 95 65 82 49
No reported NOTAMs for that airfield.
2 SIGMETs reported for the Marseille FIR (LFMM) :
 
Embedded thunderstorms
LFMM SIGMET 2 VALID 210330/210500 LFPW
LFMM MARSEILLE FIR/UIR EMBD TS OBS WI N4000 E00445 - N4015 E00445 - N4015 E00515 - N4000 E00515 - N4000 E00445 TOP FL300 MOV N 15KT NC=
Severe turbulence
LFMM SIGMET 1 VALID 210230/210600 LFPW
LFMM MARSEILLE FIR/UIR SEV TURB FCST WI N4300 E00945 - N4115 E00945 - N4115 E00800 - N3900 E00800 - N3900 E00700 - N4315 E00530 - N4345 E00715 - N4300 E00945 SFC/FL080 STNR NC=



MET'MAP, your aeronautical weather chart ! - Copyright ORBIFLY December 2007 - Disclaimer

ORBIFLY MET'MAP TEAM :

Programming & Development : Alexandra Zaïnal
Concept & Development : Baudouin d'Aumeries
Co-Development & Prog : Marc-Olivier Méhu
Technical & hardware support : Manuel Goepfert

Contact : metmap@orbifly.com




SOURCES & CREDITS :

   NOAA